sensor_id;sensor_type;location;lat;lon;timestamp;P1;durP1;ratioP1;P2;durP2;ratioP2
72437;SDS011;60444;43.534;-5.674;2024-03-02T00:00:07;1.55;;;0.40;;
72437;SDS011;60444;43.534;-5.674;2024-03-02T00:02:46;2.83;;;0.50;;
72437;SDS011;60444;43.534;-5.674;2024-03-02T00:05:13;2.10;;;0.40;;
72437;SDS011;60444;43.534;-5.674;2024-03-02T00:07:44;2.67;;;0.68;;
72437;SDS011;60444;43.534;-5.674;2024-03-02T00:10:11;2.57;;;0.43;;
72437;SDS011;60444;43.534;-5.674;2024-03-02T00:12:45;1.05;;;0.35;;
72437;SDS011;60444;43.534;-5.674;2024-03-02T00:18:08;2.20;;;0.40;;
72437;SDS011;60444;43.534;-5.674;2024-03-02T00:20:36;1.90;;;0.60;;
72437;SDS011;60444;43.534;-5.674;2024-03-02T00:23:03;1.03;;;0.30;;
72437;SDS011;60444;43.534;-5.674;2024-03-02T00:28:10;2.63;;;0.63;;
72437;SDS011;60444;43.534;-5.674;2024-03-02T00:33:20;1.70;;;0.30;;
72437;SDS011;60444;43.534;-5.674;2024-03-02T00:35:46;2.08;;;0.40;;
72437;SDS011;60444;43.534;-5.674;2024-03-02T00:38:14;1.75;;;0.43;;
72437;SDS011;60444;43.534;-5.674;2024-03-02T00:40:43;2.38;;;0.43;;
72437;SDS011;60444;43.534;-5.674;2024-03-02T00:43:55;2.85;;;0.52;;
72437;SDS011;60444;43.534;-5.674;2024-03-02T00:45:54;1.10;;;0.30;;
72437;SDS011;60444;43.534;-5.674;2024-03-02T00:48:20;2.47;;;0.50;;
72437;SDS011;60444;43.534;-5.674;2024-03-02T00:50:46;2.23;;;0.60;;
72437;SDS011;60444;43.534;-5.674;2024-03-02T00:53:17;1.95;;;0.40;;
72437;SDS011;60444;43.534;-5.674;2024-03-02T00:55:49;4.82;;;0.60;;
72437;SDS011;60444;43.534;-5.674;2024-03-02T00:58:15;2.07;;;0.43;;
72437;SDS011;60444;43.534;-5.674;2024-03-02T01:00:40;2.60;;;0.50;;
72437;SDS011;60444;43.534;-5.674;2024-03-02T01:03:06;3.20;;;0.50;;
72437;SDS011;60444;43.534;-5.674;2024-03-02T01:05:33;6.20;;;1.00;;
72437;SDS011;60444;43.534;-5.674;2024-03-02T01:07:58;4.60;;;0.95;;
72437;SDS011;60444;43.534;-5.674;2024-03-02T01:10:24;4.53;;;1.17;;
72437;SDS011;60444;43.534;-5.674;2024-03-02T01:12:51;2.50;;;0.45;;
72437;SDS011;60444;43.534;-5.674;2024-03-02T01:15:16;7.93;;;2.60;;
72437;SDS011;60444;43.534;-5.674;2024-03-02T01:17:46;7.20;;;1.50;;
72437;SDS011;60444;43.534;-5.674;2024-03-02T01:20:12;7.55;;;1.20;;
72437;SDS011;60444;43.534;-5.674;2024-03-02T01:22:37;5.27;;;0.80;;
72437;SDS011;60444;43.534;-5.674;2024-03-02T01:25:03;3.67;;;0.80;;
72437;SDS011;60444;43.534;-5.674;2024-03-02T01:27:29;3.10;;;0.85;;
72437;SDS011;60444;43.534;-5.674;2024-03-02T01:29:55;3.55;;;0.77;;
72437;SDS011;60444;43.534;-5.674;2024-03-02T01:32:20;3.33;;;0.80;;
72437;SDS011;60444;43.534;-5.674;2024-03-02T01:34:45;3.13;;;0.70;;
72437;SDS011;60444;43.534;-5.674;2024-03-02T01:37:11;3.60;;;0.70;;
72437;SDS011;60444;43.534;-5.674;2024-03-02T01:39:37;2.90;;;0.70;;
72437;SDS011;60444;43.534;-5.674;2024-03-02T01:42:02;4.40;;;1.03;;
72437;SDS011;60444;43.534;-5.674;2024-03-02T01:44:28;5.15;;;0.80;;
72437;SDS011;60444;43.534;-5.674;2024-03-02T01:46:53;3.73;;;0.77;;
72437;SDS011;60444;43.534;-5.674;2024-03-02T01:49:19;3.73;;;0.57;;
72437;SDS011;60444;43.534;-5.674;2024-03-02T01:51:45;2.10;;;0.52;;
72437;SDS011;60444;43.534;-5.674;2024-03-02T01:54:11;2.30;;;0.40;;
72437;SDS011;60444;43.534;-5.674;2024-03-02T01:56:36;2.17;;;0.47;;
72437;SDS011;60444;43.534;-5.674;2024-03-02T01:59:02;2.73;;;0.50;;
72437;SDS011;60444;43.534;-5.674;2024-03-02T02:01:28;2.97;;;0.63;;
72437;SDS011;60444;43.534;-5.674;2024-03-02T02:03:54;2.13;;;0.30;;
72437;SDS011;60444;43.534;-5.674;2024-03-02T02:06:19;1.93;;;0.50;;
72437;SDS011;60444;43.534;-5.674;2024-03-02T02:08:45;3.60;;;0.60;;
72437;SDS011;60444;43.534;-5.674;2024-03-02T02:11:14;1.95;;;0.60;;
72437;SDS011;60444;43.534;-5.674;2024-03-02T02:13:40;2.08;;;0.50;;
72437;SDS011;60444;43.534;-5.674;2024-03-02T02:16:06;2.93;;;0.60;;
72437;SDS011;60444;43.534;-5.674;2024-03-02T02:18:32;2.88;;;0.50;;
72437;SDS011;60444;43.534;-5.674;2024-03-02T02:20:58;2.20;;;0.60;;
72437;SDS011;60444;43.534;-5.674;2024-03-02T02:23:24;2.80;;;0.60;;
72437;SDS011;60444;43.534;-5.674;2024-03-02T02:25:50;2.33;;;0.40;;
72437;SDS011;60444;43.534;-5.674;2024-03-02T02:28:15;2.30;;;0.47;;
72437;SDS011;60444;43.534;-5.674;2024-03-02T02:30:40;2.73;;;0.50;;
72437;SDS011;60444;43.534;-5.674;2024-03-02T02:33:06;2.80;;;0.50;;
72437;SDS011;60444;43.534;-5.674;2024-03-02T02:35:32;2.45;;;0.60;;
72437;SDS011;60444;43.534;-5.674;2024-03-02T02:37:57;1.53;;;0.40;;
72437;SDS011;60444;43.534;-5.674;2024-03-02T02:40:26;1.75;;;0.47;;
72437;SDS011;60444;43.534;-5.674;2024-03-02T02:42:55;3.30;;;0.68;;
72437;SDS011;60444;43.534;-5.674;2024-03-02T02:45:21;2.20;;;0.40;;
72437;SDS011;60444;43.534;-5.674;2024-03-02T02:47:47;2.60;;;0.47;;
72437;SDS011;60444;43.534;-5.674;2024-03-02T02:50:12;2.63;;;0.40;;
72437;SDS011;60444;43.534;-5.674;2024-03-02T02:52:38;3.60;;;0.80;;
72437;SDS011;60444;43.534;-5.674;2024-03-02T02:55:06;2.65;;;0.50;;
72437;SDS011;60444;43.534;-5.674;2024-03-02T02:57:34;3.28;;;0.70;;
72437;SDS011;60444;43.534;-5.674;2024-03-02T03:00:02;2.85;;;0.60;;
72437;SDS011;60444;43.534;-5.674;2024-03-02T03:02:35;3.10;;;0.60;;
72437;SDS011;60444;43.534;-5.674;2024-03-02T03:05:04;2.73;;;0.40;;
72437;SDS011;60444;43.534;-5.674;2024-03-02T03:07:31;2.42;;;0.47;;
72437;SDS011;60444;43.534;-5.674;2024-03-02T03:09:57;2.40;;;0.60;;
72437;SDS011;60444;43.534;-5.674;2024-03-02T03:12:24;2.47;;;0.40;;
72437;SDS011;60444;43.534;-5.674;2024-03-02T03:14:50;2.27;;;0.53;;
72437;SDS011;60444;43.534;-5.674;2024-03-02T03:17:15;2.37;;;0.40;;
72437;SDS011;60444;43.534;-5.674;2024-03-02T03:19:42;3.00;;;0.75;;
72437;SDS011;60444;43.534;-5.674;2024-03-02T03:22:08;2.75;;;0.47;;
72437;SDS011;60444;43.534;-5.674;2024-03-02T03:24:33;3.40;;;0.60;;
72437;SDS011;60444;43.534;-5.674;2024-03-02T03:26:59;2.07;;;0.53;;
72437;SDS011;60444;43.534;-5.674;2024-03-02T03:29:24;3.33;;;0.50;;
72437;SDS011;60444;43.534;-5.674;2024-03-02T03:31:50;2.03;;;0.57;;
72437;SDS011;60444;43.534;-5.674;2024-03-02T03:34:16;1.98;;;0.50;;
72437;SDS011;60444;43.534;-5.674;2024-03-02T03:36:42;2.27;;;0.50;;
72437;SDS011;60444;43.534;-5.674;2024-03-02T03:39:08;1.83;;;0.47;;
72437;SDS011;60444;43.534;-5.674;2024-03-02T03:41:33;2.40;;;0.40;;
72437;SDS011;60444;43.534;-5.674;2024-03-02T03:43:59;0.70;;;0.20;;
72437;SDS011;60444;43.534;-5.674;2024-03-02T03:46:24;2.57;;;0.50;;
72437;SDS011;60444;43.534;-5.674;2024-03-02T03:48:50;1.80;;;0.50;;
72437;SDS011;60444;43.534;-5.674;2024-03-02T03:51:16;3.15;;;0.60;;
72437;SDS011;60444;43.534;-5.674;2024-03-02T03:53:41;1.73;;;0.50;;
72437;SDS011;60444;43.534;-5.674;2024-03-02T03:56:07;3.10;;;0.50;;
72437;SDS011;60444;43.534;-5.674;2024-03-02T03:58:32;2.53;;;0.60;;
72437;SDS011;60444;43.534;-5.674;2024-03-02T04:01:00;2.87;;;0.40;;
72437;SDS011;60444;43.534;-5.674;2024-03-02T04:03:26;3.03;;;0.60;;
72437;SDS011;60444;43.534;-5.674;2024-03-02T04:05:51;1.73;;;0.50;;
72437;SDS011;60444;43.534;-5.674;2024-03-02T04:08:17;1.73;;;0.40;;
72437;SDS011;60444;43.534;-5.674;2024-03-02T04:10:42;2.20;;;0.30;;
72437;SDS011;60444;43.534;-5.674;2024-03-02T04:13:08;3.63;;;0.70;;
72437;SDS011;60444;43.534;-5.674;2024-03-02T04:15:34;2.35;;;0.50;;
72437;SDS011;60444;43.534;-5.674;2024-03-02T04:18:00;1.27;;;0.40;;
72437;SDS011;60444;43.534;-5.674;2024-03-02T04:20:25;1.80;;;0.50;;
72437;SDS011;60444;43.534;-5.674;2024-03-02T04:22:51;1.47;;;0.40;;
72437;SDS011;60444;43.534;-5.674;2024-03-02T04:25:16;2.37;;;0.60;;
72437;SDS011;60444;43.534;-5.674;2024-03-02T04:27:42;3.10;;;0.50;;
72437;SDS011;60444;43.534;-5.674;2024-03-02T04:30:07;1.63;;;0.40;;
72437;SDS011;60444;43.534;-5.674;2024-03-02T04:32:33;1.83;;;0.40;;
72437;SDS011;60444;43.534;-5.674;2024-03-02T04:34:59;1.83;;;0.43;;
72437;SDS011;60444;43.534;-5.674;2024-03-02T04:37:24;1.57;;;0.33;;
72437;SDS011;60444;43.534;-5.674;2024-03-02T04:39:50;5.37;;;0.50;;
72437;SDS011;60444;43.534;-5.674;2024-03-02T04:42:15;2.00;;;0.50;;
72437;SDS011;60444;43.534;-5.674;2024-03-02T04:44:41;3.47;;;0.50;;
72437;SDS011;60444;43.534;-5.674;2024-03-02T04:47:06;2.40;;;0.50;;
72437;SDS011;60444;43.534;-5.674;2024-03-02T04:49:32;1.00;;;0.30;;
72437;SDS011;60444;43.534;-5.674;2024-03-02T04:51:57;2.00;;;0.50;;
72437;SDS011;60444;43.534;-5.674;2024-03-02T04:54:23;1.77;;;0.40;;
72437;SDS011;60444;43.534;-5.674;2024-03-02T04:56:49;1.35;;;0.45;;
72437;SDS011;60444;43.534;-5.674;2024-03-02T04:59:18;1.83;;;0.50;;
72437;SDS011;60444;43.534;-5.674;2024-03-02T05:01:44;1.65;;;0.40;;
72437;SDS011;60444;43.534;-5.674;2024-03-02T05:04:10;1.00;;;0.30;;
72437;SDS011;60444;43.534;-5.674;2024-03-02T05:06:39;1.75;;;0.35;;
72437;SDS011;60444;43.534;-5.674;2024-03-02T05:09:10;2.28;;;0.40;;
72437;SDS011;60444;43.534;-5.674;2024-03-02T05:11:36;1.83;;;0.33;;
72437;SDS011;60444;43.534;-5.674;2024-03-02T05:14:07;1.30;;;0.40;;
72437;SDS011;60444;43.534;-5.674;2024-03-02T05:16:36;1.60;;;0.47;;
72437;SDS011;60444;43.534;-5.674;2024-03-02T05:19:05;1.77;;;0.40;;
72437;SDS011;60444;43.534;-5.674;2024-03-02T05:21:33;1.52;;;0.43;;
72437;SDS011;60444;43.534;-5.674;2024-03-02T05:23:59;1.50;;;0.30;;
72437;SDS011;60444;43.534;-5.674;2024-03-02T05:26:25;1.67;;;0.40;;
72437;SDS011;60444;43.534;-5.674;2024-03-02T05:28:50;1.23;;;0.30;;
72437;SDS011;60444;43.534;-5.674;2024-03-02T05:31:16;1.63;;;0.40;;
72437;SDS011;60444;43.534;-5.674;2024-03-02T05:33:42;1.40;;;0.30;;
72437;SDS011;60444;43.534;-5.674;2024-03-02T05:36:08;0.80;;;0.30;;
72437;SDS011;60444;43.534;-5.674;2024-03-02T05:38:37;1.53;;;0.30;;
72437;SDS011;60444;43.534;-5.674;2024-03-02T05:41:02;1.55;;;0.40;;
72437;SDS011;60444;43.534;-5.674;2024-03-02T05:43:28;1.30;;;0.40;;
72437;SDS011;60444;43.534;-5.674;2024-03-02T05:45:54;1.40;;;0.50;;
72437;SDS011;60444;43.534;-5.674;2024-03-02T05:48:19;2.13;;;0.50;;
72437;SDS011;60444;43.534;-5.674;2024-03-02T05:50:48;1.67;;;0.40;;
72437;SDS011;60444;43.534;-5.674;2024-03-02T05:53:13;1.40;;;0.40;;
72437;SDS011;60444;43.534;-5.674;2024-03-02T05:55:40;1.10;;;0.30;;
72437;SDS011;60444;43.534;-5.674;2024-03-02T05:58:06;1.33;;;0.30;;
72437;SDS011;60444;43.534;-5.674;2024-03-02T06:00:31;1.00;;;0.40;;
72437;SDS011;60444;43.534;-5.674;2024-03-02T06:02:57;1.20;;;0.35;;
72437;SDS011;60444;43.534;-5.674;2024-03-02T06:05:23;1.30;;;0.50;;
72437;SDS011;60444;43.534;-5.674;2024-03-02T06:07:49;2.00;;;0.50;;
72437;SDS011;60444;43.534;-5.674;2024-03-02T06:10:15;1.27;;;0.40;;
72437;SDS011;60444;43.534;-5.674;2024-03-02T06:12:41;1.20;;;0.30;;
72437;SDS011;60444;43.534;-5.674;2024-03-02T06:15:06;1.23;;;0.30;;
72437;SDS011;60444;43.534;-5.674;2024-03-02T06:17:32;1.53;;;0.60;;
72437;SDS011;60444;43.534;-5.674;2024-03-02T06:19:57;1.08;;;0.40;;
72437;SDS011;60444;43.534;-5.674;2024-03-02T06:22:23;0.90;;;0.30;;
72437;SDS011;60444;43.534;-5.674;2024-03-02T06:24:50;1.63;;;0.40;;
72437;SDS011;60444;43.534;-5.674;2024-03-02T06:27:16;1.30;;;0.40;;
72437;SDS011;60444;43.534;-5.674;2024-03-02T06:29:41;0.90;;;0.20;;
72437;SDS011;60444;43.534;-5.674;2024-03-02T06:32:07;1.83;;;0.50;;
72437;SDS011;60444;43.534;-5.674;2024-03-02T06:34:33;1.33;;;0.30;;
72437;SDS011;60444;43.534;-5.674;2024-03-02T06:36:58;1.30;;;0.40;;
72437;SDS011;60444;43.534;-5.674;2024-03-02T06:39:24;1.47;;;0.40;;
72437;SDS011;60444;43.534;-5.674;2024-03-02T06:41:51;1.70;;;0.43;;
72437;SDS011;60444;43.534;-5.674;2024-03-02T06:44:20;1.35;;;0.50;;
72437;SDS011;60444;43.534;-5.674;2024-03-02T06:46:46;1.83;;;0.40;;
72437;SDS011;60444;43.534;-5.674;2024-03-02T06:49:11;1.80;;;0.40;;
72437;SDS011;60444;43.534;-5.674;2024-03-02T06:51:37;4.60;;;0.80;;
72437;SDS011;60444;43.534;-5.674;2024-03-02T06:54:02;2.92;;;0.57;;
72437;SDS011;60444;43.534;-5.674;2024-03-02T06:56:28;2.50;;;0.60;;
72437;SDS011;60444;43.534;-5.674;2024-03-02T06:58:53;1.73;;;0.40;;
72437;SDS011;60444;43.534;-5.674;2024-03-02T07:01:19;2.23;;;0.50;;
72437;SDS011;60444;43.534;-5.674;2024-03-02T07:03:47;1.40;;;0.35;;
72437;SDS011;60444;43.534;-5.674;2024-03-02T07:06:13;5.30;;;0.70;;
72437;SDS011;60444;43.534;-5.674;2024-03-02T07:08:39;8.63;;;1.00;;
72437;SDS011;60444;43.534;-5.674;2024-03-02T07:11:04;5.50;;;1.00;;
72437;SDS011;60444;43.534;-5.674;2024-03-02T07:13:30;5.22;;;0.90;;
72437;SDS011;60444;43.534;-5.674;2024-03-02T07:15:55;11.50;;;1.07;;
72437;SDS011;60444;43.534;-5.674;2024-03-02T07:18:36;6.82;;;1.05;;
72437;SDS011;60444;43.534;-5.674;2024-03-02T07:21:10;8.80;;;1.50;;
72437;SDS011;60444;43.534;-5.674;2024-03-02T07:23:36;7.83;;;1.40;;
72437;SDS011;60444;43.534;-5.674;2024-03-02T07:26:01;12.13;;;1.52;;
72437;SDS011;60444;43.534;-5.674;2024-03-02T07:28:28;11.83;;;1.47;;
72437;SDS011;60444;43.534;-5.674;2024-03-02T07:30:57;10.27;;;1.50;;
72437;SDS011;60444;43.534;-5.674;2024-03-02T07:33:30;10.40;;;1.10;;
72437;SDS011;60444;43.534;-5.674;2024-03-02T07:35:56;4.95;;;1.00;;
72437;SDS011;60444;43.534;-5.674;2024-03-02T07:38:24;6.67;;;0.73;;
72437;SDS011;60444;43.534;-5.674;2024-03-02T07:40:50;7.38;;;1.55;;
72437;SDS011;60444;43.534;-5.674;2024-03-02T07:43:18;6.23;;;0.80;;
72437;SDS011;60444;43.534;-5.674;2024-03-02T07:45:45;7.00;;;0.93;;
72437;SDS011;60444;43.534;-5.674;2024-03-02T07:48:11;8.38;;;1.20;;
72437;SDS011;60444;43.534;-5.674;2024-03-02T07:50:36;6.20;;;0.80;;
72437;SDS011;60444;43.534;-5.674;2024-03-02T07:53:04;7.10;;;0.77;;
72437;SDS011;60444;43.534;-5.674;2024-03-02T07:55:30;9.18;;;0.93;;
72437;SDS011;60444;43.534;-5.674;2024-03-02T07:57:56;8.30;;;1.45;;
72437;SDS011;60444;43.534;-5.674;2024-03-02T08:00:22;7.30;;;1.77;;
72437;SDS011;60444;43.534;-5.674;2024-03-02T08:02:49;7.60;;;0.80;;
72437;SDS011;60444;43.534;-5.674;2024-03-02T08:05:16;11.97;;;1.53;;
72437;SDS011;60444;43.534;-5.674;2024-03-02T08:07:44;6.97;;;0.90;;
72437;SDS011;60444;43.534;-5.674;2024-03-02T08:10:11;9.85;;;0.90;;
72437;SDS011;60444;43.534;-5.674;2024-03-02T08:12:37;9.48;;;1.30;;
72437;SDS011;60444;43.534;-5.674;2024-03-02T08:15:03;4.83;;;0.90;;
72437;SDS011;60444;43.534;-5.674;2024-03-02T08:17:29;8.75;;;0.90;;
72437;SDS011;60444;43.534;-5.674;2024-03-02T08:19:55;5.03;;;1.23;;
72437;SDS011;60444;43.534;-5.674;2024-03-02T08:22:23;10.05;;;1.33;;
72437;SDS011;60444;43.534;-5.674;2024-03-02T08:24:50;4.33;;;0.70;;
72437;SDS011;60444;43.534;-5.674;2024-03-02T08:27:17;4.68;;;1.00;;
72437;SDS011;60444;43.534;-5.674;2024-03-02T08:29:42;6.90;;;0.80;;
72437;SDS011;60444;43.534;-5.674;2024-03-02T08:32:08;8.65;;;1.15;;
72437;SDS011;60444;43.534;-5.674;2024-03-02T08:34:33;4.90;;;1.10;;
72437;SDS011;60444;43.534;-5.674;2024-03-02T08:37:01;9.23;;;1.10;;
72437;SDS011;60444;43.534;-5.674;2024-03-02T08:39:27;6.68;;;1.10;;
72437;SDS011;60444;43.534;-5.674;2024-03-02T08:41:53;8.43;;;1.33;;
72437;SDS011;60444;43.534;-5.674;2024-03-02T08:44:19;8.50;;;1.42;;
72437;SDS011;60444;43.534;-5.674;2024-03-02T08:46:45;9.45;;;1.10;;
72437;SDS011;60444;43.534;-5.674;2024-03-02T08:49:10;9.40;;;1.17;;
72437;SDS011;60444;43.534;-5.674;2024-03-02T08:51:36;6.97;;;1.10;;
72437;SDS011;60444;43.534;-5.674;2024-03-02T08:54:02;7.60;;;1.10;;
72437;SDS011;60444;43.534;-5.674;2024-03-02T08:56:29;5.72;;;0.88;;
72437;SDS011;60444;43.534;-5.674;2024-03-02T08:58:55;4.57;;;0.80;;
72437;SDS011;60444;43.534;-5.674;2024-03-02T09:01:21;6.00;;;1.00;;
72437;SDS011;60444;43.534;-5.674;2024-03-02T09:03:46;3.85;;;0.70;;
72437;SDS011;60444;43.534;-5.674;2024-03-02T09:06:14;5.25;;;1.00;;
72437;SDS011;60444;43.534;-5.674;2024-03-02T09:08:41;6.13;;;0.93;;
72437;SDS011;60444;43.534;-5.674;2024-03-02T09:11:08;7.13;;;0.80;;
72437;SDS011;60444;43.534;-5.674;2024-03-02T09:13:35;6.88;;;1.13;;
72437;SDS011;60444;43.534;-5.674;2024-03-02T09:16:02;5.70;;;1.15;;
72437;SDS011;60444;43.534;-5.674;2024-03-02T09:18:28;5.93;;;0.90;;
72437;SDS011;60444;43.534;-5.674;2024-03-02T09:20:54;4.97;;;0.73;;
72437;SDS011;60444;43.534;-5.674;2024-03-02T09:23:19;5.90;;;1.27;;
72437;SDS011;60444;43.534;-5.674;2024-03-02T09:25:45;4.57;;;0.93;;
72437;SDS011;60444;43.534;-5.674;2024-03-02T09:28:11;4.95;;;1.00;;
72437;SDS011;60444;43.534;-5.674;2024-03-02T09:30:37;5.53;;;0.90;;
72437;SDS011;60444;43.534;-5.674;2024-03-02T09:33:03;5.87;;;1.00;;
72437;SDS011;60444;43.534;-5.674;2024-03-02T09:35:28;4.47;;;0.90;;
72437;SDS011;60444;43.534;-5.674;2024-03-02T09:37:55;5.20;;;0.83;;
72437;SDS011;60444;43.534;-5.674;2024-03-02T09:40:23;3.42;;;0.75;;
72437;SDS011;60444;43.534;-5.674;2024-03-02T09:42:49;6.13;;;1.00;;
72437;SDS011;60444;43.534;-5.674;2024-03-02T09:45:26;6.85;;;0.90;;
72437;SDS011;60444;43.534;-5.674;2024-03-02T09:47:52;3.75;;;0.90;;
72437;SDS011;60444;43.534;-5.674;2024-03-02T09:50:17;4.17;;;0.70;;
72437;SDS011;60444;43.534;-5.674;2024-03-02T09:52:43;6.43;;;0.87;;
72437;SDS011;60444;43.534;-5.674;2024-03-02T09:55:13;4.15;;;0.85;;
72437;SDS011;60444;43.534;-5.674;2024-03-02T09:57:40;4.75;;;0.80;;
72437;SDS011;60444;43.534;-5.674;2024-03-02T10:00:07;5.15;;;0.90;;
72437;SDS011;60444;43.534;-5.674;2024-03-02T10:02:33;5.03;;;1.40;;
72437;SDS011;60444;43.534;-5.674;2024-03-02T10:04:59;5.53;;;1.48;;
72437;SDS011;60444;43.534;-5.674;2024-03-02T10:07:24;7.03;;;2.17;;
72437;SDS011;60444;43.534;-5.674;2024-03-02T10:09:50;7.23;;;1.03;;
72437;SDS011;60444;43.534;-5.674;2024-03-02T10:12:17;6.77;;;1.60;;
72437;SDS011;60444;43.534;-5.674;2024-03-02T10:14:43;6.05;;;0.70;;
72437;SDS011;60444;43.534;-5.674;2024-03-02T10:17:13;5.85;;;0.95;;
72437;SDS011;60444;43.534;-5.674;2024-03-02T10:19:40;5.65;;;0.95;;
72437;SDS011;60444;43.534;-5.674;2024-03-02T10:22:09;5.13;;;0.97;;
72437;SDS011;60444;43.534;-5.674;2024-03-02T10:27:14;3.92;;;0.90;;
72437;SDS011;60444;43.534;-5.674;2024-03-02T10:29:51;4.97;;;1.02;;
72437;SDS011;60444;43.534;-5.674;2024-03-02T10:32:17;4.50;;;1.07;;
72437;SDS011;60444;43.534;-5.674;2024-03-02T10:34:44;5.63;;;0.87;;
72437;SDS011;60444;43.534;-5.674;2024-03-02T10:37:10;5.13;;;0.80;;
72437;SDS011;60444;43.534;-5.674;2024-03-02T10:39:37;4.25;;;0.90;;
72437;SDS011;60444;43.534;-5.674;2024-03-02T10:42:06;5.32;;;0.90;;
72437;SDS011;60444;43.534;-5.674;2024-03-02T10:44:32;4.22;;;0.82;;
72437;SDS011;60444;43.534;-5.674;2024-03-02T10:47:02;4.13;;;0.90;;
72437;SDS011;60444;43.534;-5.674;2024-03-02T10:49:29;3.97;;;0.77;;
72437;SDS011;60444;43.534;-5.674;2024-03-02T10:51:57;3.97;;;0.70;;
72437;SDS011;60444;43.534;-5.674;2024-03-02T10:54:23;4.60;;;0.60;;
72437;SDS011;60444;43.534;-5.674;2024-03-02T10:56:52;3.90;;;0.73;;
72437;SDS011;60444;43.534;-5.674;2024-03-02T11:02:01;3.50;;;0.67;;
72437;SDS011;60444;43.534;-5.674;2024-03-02T11:04:28;6.45;;;1.17;;
72437;SDS011;60444;43.534;-5.674;2024-03-02T11:06:56;3.55;;;0.70;;
72437;SDS011;60444;43.534;-5.674;2024-03-02T11:09:28;7.13;;;0.85;;
72437;SDS011;60444;43.534;-5.674;2024-03-02T11:12:04;1.98;;;0.60;;
72437;SDS011;60444;43.534;-5.674;2024-03-02T11:14:31;2.10;;;0.43;;
72437;SDS011;60444;43.534;-5.674;2024-03-02T11:17:01;3.95;;;1.10;;
72437;SDS011;60444;43.534;-5.674;2024-03-02T11:19:28;3.38;;;0.65;;
72437;SDS011;60444;43.534;-5.674;2024-03-02T11:21:56;3.47;;;0.60;;
72437;SDS011;60444;43.534;-5.674;2024-03-02T11:26:49;2.63;;;0.60;;
72437;SDS011;60444;43.534;-5.674;2024-03-02T11:32:01;3.55;;;0.50;;
72437;SDS011;60444;43.534;-5.674;2024-03-02T11:34:31;2.67;;;0.45;;
72437;SDS011;60444;43.534;-5.674;2024-03-02T11:37:03;2.75;;;0.60;;
72437;SDS011;60444;43.534;-5.674;2024-03-02T11:39:29;3.17;;;0.57;;
72437;SDS011;60444;43.534;-5.674;2024-03-02T11:41:56;3.58;;;0.40;;
72437;SDS011;60444;43.534;-5.674;2024-03-02T11:44:26;3.10;;;0.60;;
72437;SDS011;60444;43.534;-5.674;2024-03-02T11:46:57;2.20;;;0.40;;
72437;SDS011;60444;43.534;-5.674;2024-03-02T11:52:11;1.47;;;0.50;;
72437;SDS011;60444;43.534;-5.674;2024-03-02T11:54:38;1.95;;;0.40;;
72437;SDS011;60444;43.534;-5.674;2024-03-02T11:57:05;1.67;;;0.40;;
72437;SDS011;60444;43.534;-5.674;2024-03-02T11:59:31;3.08;;;0.73;;
72437;SDS011;60444;43.534;-5.674;2024-03-02T12:01:58;1.90;;;0.50;;
72437;SDS011;60444;43.534;-5.674;2024-03-02T12:04:24;3.15;;;0.52;;
72437;SDS011;60444;43.534;-5.674;2024-03-02T12:06:54;2.10;;;0.47;;
72437;SDS011;60444;43.534;-5.674;2024-03-02T12:09:29;2.05;;;0.60;;
72437;SDS011;60444;43.534;-5.674;2024-03-02T12:12:01;3.35;;;0.50;;
72437;SDS011;60444;43.534;-5.674;2024-03-02T12:14:37;2.27;;;0.47;;
72437;SDS011;60444;43.534;-5.674;2024-03-02T12:17:04;2.05;;;0.40;;
72437;SDS011;60444;43.534;-5.674;2024-03-02T12:19:31;2.15;;;0.30;;
72437;SDS011;60444;43.534;-5.674;2024-03-02T12:21:58;3.05;;;0.40;;
72437;SDS011;60444;43.534;-5.674;2024-03-02T12:24:26;3.15;;;0.65;;
72437;SDS011;60444;43.534;-5.674;2024-03-02T12:26:52;3.90;;;0.60;;
72437;SDS011;60444;43.534;-5.674;2024-03-02T12:29:22;7.68;;;0.90;;
72437;SDS011;60444;43.534;-5.674;2024-03-02T12:31:51;3.05;;;0.52;;
72437;SDS011;60444;43.534;-5.674;2024-03-02T12:34:18;3.72;;;0.85;;
72437;SDS011;60444;43.534;-5.674;2024-03-02T12:36:45;2.75;;;0.60;;
72437;SDS011;60444;43.534;-5.674;2024-03-02T12:39:14;2.03;;;0.60;;
72437;SDS011;60444;43.534;-5.674;2024-03-02T12:41:43;2.70;;;0.50;;
72437;SDS011;60444;43.534;-5.674;2024-03-02T12:44:10;2.28;;;0.50;;
72437;SDS011;60444;43.534;-5.674;2024-03-02T12:46:35;2.97;;;0.57;;
72437;SDS011;60444;43.534;-5.674;2024-03-02T12:49:11;2.13;;;0.57;;
72437;SDS011;60444;43.534;-5.674;2024-03-02T12:51:38;2.53;;;0.45;;
72437;SDS011;60444;43.534;-5.674;2024-03-02T12:54:08;3.22;;;0.70;;
72437;SDS011;60444;43.534;-5.674;2024-03-02T12:56:35;3.00;;;0.50;;
72437;SDS011;60444;43.534;-5.674;2024-03-02T12:59:02;3.72;;;0.52;;
72437;SDS011;60444;43.534;-5.674;2024-03-02T13:01:28;4.25;;;0.60;;
72437;SDS011;60444;43.534;-5.674;2024-03-02T13:03:54;2.70;;;0.50;;
72437;SDS011;60444;43.534;-5.674;2024-03-02T13:06:21;3.15;;;0.47;;
72437;SDS011;60444;43.534;-5.674;2024-03-02T13:08:46;2.20;;;0.40;;
72437;SDS011;60444;43.534;-5.674;2024-03-02T13:11:12;2.15;;;0.40;;
72437;SDS011;60444;43.534;-5.674;2024-03-02T13:13:39;2.70;;;0.55;;
72437;SDS011;60444;43.534;-5.674;2024-03-02T13:16:11;2.53;;;0.40;;
72437;SDS011;60444;43.534;-5.674;2024-03-02T13:18:41;3.10;;;0.80;;
72437;SDS011;60444;43.534;-5.674;2024-03-02T13:21:07;2.00;;;0.50;;
72437;SDS011;60444;43.534;-5.674;2024-03-02T13:23:33;3.17;;;0.63;;
72437;SDS011;60444;43.534;-5.674;2024-03-02T13:25:59;3.37;;;0.60;;
72437;SDS011;60444;43.534;-5.674;2024-03-02T13:28:25;3.20;;;0.65;;
72437;SDS011;60444;43.534;-5.674;2024-03-02T13:30:51;1.90;;;0.43;;
72437;SDS011;60444;43.534;-5.674;2024-03-02T13:33:17;2.75;;;0.75;;
72437;SDS011;60444;43.534;-5.674;2024-03-02T13:35:47;1.88;;;0.40;;
72437;SDS011;60444;43.534;-5.674;2024-03-02T13:38:15;2.05;;;0.43;;
72437;SDS011;60444;43.534;-5.674;2024-03-02T13:40:44;2.83;;;0.50;;
72437;SDS011;60444;43.534;-5.674;2024-03-02T13:43:10;2.55;;;0.50;;
72437;SDS011;60444;43.534;-5.674;2024-03-02T13:45:39;2.28;;;0.50;;
72437;SDS011;60444;43.534;-5.674;2024-03-02T13:48:04;1.77;;;0.53;;
72437;SDS011;60444;43.534;-5.674;2024-03-02T13:50:30;2.13;;;0.30;;
72437;SDS011;60444;43.534;-5.674;2024-03-02T13:52:56;1.40;;;0.40;;
72437;SDS011;60444;43.534;-5.674;2024-03-02T13:55:22;1.70;;;0.40;;
72437;SDS011;60444;43.534;-5.674;2024-03-02T13:57:47;2.22;;;0.50;;
72437;SDS011;60444;43.534;-5.674;2024-03-02T14:00:15;2.50;;;0.40;;
72437;SDS011;60444;43.534;-5.674;2024-03-02T14:02:42;3.33;;;0.60;;
72437;SDS011;60444;43.534;-5.674;2024-03-02T14:05:08;3.08;;;0.60;;
72437;SDS011;60444;43.534;-5.674;2024-03-02T14:07:40;0.85;;;0.30;;
72437;SDS011;60444;43.534;-5.674;2024-03-02T14:10:06;3.27;;;0.60;;
72437;SDS011;60444;43.534;-5.674;2024-03-02T14:12:32;3.90;;;0.98;;
72437;SDS011;60444;43.534;-5.674;2024-03-02T14:14:57;2.47;;;0.57;;
72437;SDS011;60444;43.534;-5.674;2024-03-02T14:17:26;6.38;;;0.90;;
72437;SDS011;60444;43.534;-5.674;2024-03-02T14:19:52;4.28;;;0.70;;
72437;SDS011;60444;43.534;-5.674;2024-03-02T14:22:18;5.77;;;0.80;;
72437;SDS011;60444;43.534;-5.674;2024-03-02T14:24:47;3.17;;;0.85;;
72437;SDS011;60444;43.534;-5.674;2024-03-02T14:27:14;3.08;;;0.75;;
72437;SDS011;60444;43.534;-5.674;2024-03-02T14:29:43;2.83;;;0.70;;
72437;SDS011;60444;43.534;-5.674;2024-03-02T14:32:09;3.55;;;0.90;;
72437;SDS011;60444;43.534;-5.674;2024-03-02T14:34:34;3.37;;;0.60;;
72437;SDS011;60444;43.534;-5.674;2024-03-02T14:37:00;2.60;;;0.70;;
72437;SDS011;60444;43.534;-5.674;2024-03-02T14:39:26;3.30;;;0.80;;
72437;SDS011;60444;43.534;-5.674;2024-03-02T14:41:52;2.97;;;0.68;;
72437;SDS011;60444;43.534;-5.674;2024-03-02T14:44:17;2.93;;;0.50;;
72437;SDS011;60444;43.534;-5.674;2024-03-02T14:46:43;2.03;;;0.40;;
72437;SDS011;60444;43.534;-5.674;2024-03-02T14:49:13;2.72;;;0.38;;
72437;SDS011;60444;43.534;-5.674;2024-03-02T14:51:38;2.22;;;0.57;;